Yuncos, Spain
Current Conditions -  °F | °C
As of 10:00 AM on Thursday 23 Oct 2014 (Local Time) from LEGT Reporting Station
Clear Clear  
Wind Chill: 54°   Ceiling: Unl
Heat Index: 54°   Visibility: 6mi
Dew Point: 39°   Wind: 2mph
Humidity: 58%   Direction: 60°ENE
Pressure: 30.3"   Gusts: NA
Location:  40.09°N, 3.87°W
Report Text: LEGT 230800Z 06002KT CAVOK 12/04 Q1026
Loading
Personal Weather Stations






























Interactive Weather Map
Tropical Storm Tracking
New forecast layout! Learn more

10-Day Weather Forecast

Advertisements
Track Severe Weather on mobile